ENEV

Harstad/Narvik , Evenes Airport

Evenes, Norway
METAR ENEV 151250Z 17003KT 130V240 9999 FEW084 M06/M08 Q0993 RMK WIND 1400FT 15011KT
Observed Flight Rules
Dec-15 @ 12:50 UTC (53 minutes ago) Visual Flight Rules
Wind Visibility Clouds
170° at 3 knots 10,000+ meters
  • Few at 8,400' AGL
Temperatures Readings
Current -6°C / 21°F
Dewpoint -8°C / 18°F
Humidity 86%
Altimeter 29.32" Hg
Pressure 993 hPa
Elevation 26
METAR ENEV 151250Z 17003KT 130V240 9999 FEW084 M06/M08 Q0993 RMK WIND 1400FT 15011KT
Observed Flight Rules
Dec-15 @ 12:50 UTC
(53 minutes ago)
VFR
Wind Visibility
170° at 3 knots 10,000+ meters
Clouds
  • Few at 8,400' AGL
Temperature Dewpoint
-6°C / 21°F -8°C / 18°F
Humidity Altimeter Pressure
86% 29.32" Hg 993 hPa